首页
METAR-TAF:

METAR-TAF

机场 :

俄斯特拉发, 捷克共和国

纬度: 49-41N, 经度: 018-07E, 海拔: 256米

当前天气观测

该预报发布于31分钟前的00:30 UTC
风速4节,风向
温度 10°C
湿度 82%
气压 1032 hPa
能见度10公里或以上
多云层高于2800英尺

METAR: LKMT 270030Z 36004KT 9999 BKN028 10/07 Q1032 NOSIG

时间: 03:01 (01:01 UTC)

预报

该预报发布于2小时和1分钟前的23:00 UTC
预报有效从27日的 00点(UTC)到 28日的 06点(UTC)
风速6节,风向北转东北
能见度10公里或以上
散云层高于3500英尺
短暂存在
从 27日的 00点(UTC)到 27日的 11点(UTC)
多云层高于3000英尺
短暂存在
从 27日的 11点(UTC)到 27日的 18点(UTC)
风速16节,风向
成为
从 27日的 13点(UTC)到 27日的 15点(UTC)
能见度10公里或以上
1500米以下无云,无积雨云
成为
从 27日的 19点(UTC)到 27日的 21点(UTC)
风速2节,风向多变

TAF: LKMT 262300Z 2700/2806 02006KT 9999 SCT035 TEMPO 2700/2711 BKN030 TEMPO 2711/2718 35016KT BECMG 2713/2715 CAVOK BECMG 2719/2721 VRB02KT

超过4000个机场的气象观测和天气预报(METAR&TAF报告)。

可查询的气象台以黄色和红色小点在地图上表示。

将鼠标移到小点上方,可查看气象台名称。

然后点击查看天气观测和预报。

如需切换地图:点击带黑十字的绿色按钮放大地图;点击带横线的绿色按钮缩小地图;或者点击绿色箭头查看邻近地区的地图。


METAR-TAF: